Time;durP1;ratioP1;P1;durP2;ratioP2;P2;SDS_P1;SDS_P2;PMS_P1;PMS_P2;Temp;Humidity;BMP_temperature;BMP_pressure;BME280_temperature;BME280_humidity;BME280_pressure;Samples;Min_cycle;Max_cycle;Signal;HPM_P1;HPM_P2
2023/01/28 00:01:52;;;;;;;13.37;10.37;;;;;;;-1.11;100.00;97265.56;5015145;28;20270;-63
2023/01/28 00:04:17;;;;;;;12.53;10.30;;;;;;;-1.14;100.00;97271.00;5006051;28;20301;-63
2023/01/28 00:06:43;;;;;;;14.17;10.73;;;;;;;-1.22;100.00;97260.59;5015362;28;20241;-63
2023/01/28 00:09:08;;;;;;;11.33;9.93;;;;;;;-1.16;100.00;97262.63;5015516;28;20524;-63
2023/01/28 00:11:33;;;;;;;11.90;9.70;;;;;;;-1.19;100.00;97262.91;5015526;28;20222;-63
2023/01/28 00:13:59;;;;;;;12.53;9.90;;;;;;;-1.09;100.00;97264.50;5015112;28;20202;-63
2023/01/28 00:16:29;;;;;;;12.30;10.17;;;;;;;-1.11;100.00;97263.81;5015387;28;20176;-63
2023/01/28 00:18:54;;;;;;;14.80;11.23;;;;;;;-1.22;100.00;97258.84;5015458;28;20346;-63
2023/01/28 00:21:19;;;;;;;12.33;10.10;;;;;;;-1.15;100.00;97261.66;5015574;28;20258;-63
2023/01/28 00:23:53;;;;;;;13.97;10.20;;;;;;;-1.18;100.00;97261.97;5015077;28;20203;-63
2023/01/28 00:26:20;;;;;;;12.67;9.77;;;;;;;-1.11;100.00;97260.44;4996838;28;20262;-63
2023/01/28 00:28:47;;;;;;;11.83;10.00;;;;;;;-1.17;100.00;97255.88;5014995;28;20241;-64
2023/01/28 00:31:24;;;;;;;11.60;9.83;;;;;;;-1.08;100.00;97262.72;5014936;28;20179;-64
2023/01/28 00:33:51;;;;;;;11.47;9.73;;;;;;;-1.08;100.00;97255.03;5015313;28;20218;-64
2023/01/28 00:36:18;;;;;;;13.40;9.93;;;;;;;-1.09;100.00;97256.78;4997463;28;20589;-64
2023/01/28 00:38:49;;;;;;;11.63;10.10;;;;;;;-1.14;100.00;97247.88;5015402;28;20194;-64
2023/01/28 00:41:16;;;;;;;13.10;11.17;;;;;;;-1.19;100.00;97243.16;5013936;28;20183;-63
2023/01/28 00:43:46;;;;;;;11.27;9.77;;;;;;;-1.13;100.00;97239.22;5014945;28;20210;-63
2023/01/28 00:46:12;;;;;;;11.83;10.43;;;;;;;-1.09;100.00;97236.19;5014848;28;20527;-64
2023/01/28 00:48:40;;;;;;;11.43;9.93;;;;;;;-1.09;100.00;97235.38;5014796;28;20234;-62
2023/01/28 00:51:06;;;;;;;11.37;10.17;;;;;;;-1.06;100.00;97241.03;5005692;28;20276;-64
2023/01/28 00:53:33;;;;;;;12.37;10.47;;;;;;;-1.07;100.00;97244.59;5014674;28;20199;-63
2023/01/28 00:55:59;;;;;;;14.27;10.20;;;;;;;-1.06;100.00;97246.19;5014388;28;20204;-64
2023/01/28 00:58:25;;;;;;;11.33;9.93;;;;;;;-1.07;100.00;97248.94;5014686;28;20195;-63
2023/01/28 01:00:50;;;;;;;12.07;9.43;;;;;;;-1.08;100.00;97242.97;5014710;28;20214;-64
2023/01/28 01:03:17;;;;;;;11.10;9.67;;;;;;;-1.17;100.00;97246.38;5012471;28;20242;-64
2023/01/28 01:05:42;;;;;;;13.13;9.43;;;;;;;-1.16;100.00;97250.56;4996792;28;20191;-62
2023/01/28 01:08:08;;;;;;;10.70;9.40;;;;;;;-1.14;100.00;97246.09;5013980;28;20167;-64
2023/01/28 01:10:33;;;;;;;10.90;9.80;;;;;;;-1.05;100.00;97249.56;5014817;28;20259;-64
2023/01/28 01:12:59;;;;;;;11.73;9.97;;;;;;;-1.06;100.00;97248.75;5014410;28;20172;-63
2023/01/28 01:15:25;;;;;;;12.93;11.27;;;;;;;-1.17;100.00;97251.53;5013930;28;20246;-63
2023/01/28 01:17:52;;;;;;;10.70;9.57;;;;;;;-1.09;100.00;97249.06;5014616;28;20176;-64
2023/01/28 01:20:26;;;;;;;10.70;9.60;;;;;;;-1.14;100.00;97253.81;5014481;28;20167;-64
2023/01/28 01:22:52;;;;;;;12.80;9.90;;;;;;;-1.14;100.00;97256.41;5014362;28;20549;-63
2023/01/28 01:25:18;;;;;;;12.10;9.67;;;;;;;-1.07;100.00;97257.47;5014406;28;20522;-63
2023/01/28 01:27:46;;;;;;;10.07;9.07;;;;;;;-1.16;100.00;97257.47;5014310;28;20266;-63
2023/01/28 01:30:12;;;;;;;12.07;10.17;;;;;;;-1.16;100.00;97252.34;5014537;28;20167;-63
2023/01/28 01:32:37;;;;;;;11.80;9.73;;;;;;;-1.11;100.00;97255.28;5014257;28;20250;-64
2023/01/28 01:35:05;;;;;;;13.00;10.20;;;;;;;-1.10;100.00;97262.88;5013891;28;20203;-63
2023/01/28 01:37:31;;;;;;;11.10;9.67;;;;;;;-1.08;100.00;97253.25;5013525;28;20191;-64
2023/01/28 01:39:56;;;;;;;10.73;9.63;;;;;;;-0.99;100.00;97251.56;5013926;28;20176;-63
2023/01/28 01:42:24;;;;;;;11.50;10.30;;;;;;;-1.05;100.00;97259.88;5014178;28;20203;-64
2023/01/28 01:45:01;;;;;;;11.80;10.13;;;;;;;-1.11;100.00;97252.72;5013872;28;20293;-63
2023/01/28 01:47:45;;;;;;;10.63;9.53;;;;;;;-1.09;100.00;97259.34;5014482;28;20225;-63
2023/01/28 01:50:35;;;;;;;10.23;9.23;;;;;;;-1.07;100.00;97257.47;5013142;28;20254;-63
2023/01/28 01:53:10;;;;;;;11.43;9.30;;;;;;;-0.99;100.00;97262.69;4998123;28;20803;-63
2023/01/28 01:55:40;;;;;;;11.07;9.83;;;;;;;-1.00;100.00;97273.91;5014312;28;20207;-63
2023/01/28 01:58:09;;;;;;;10.23;9.10;;;;;;;-1.08;100.00;97265.31;5013341;28;20210;-63
2023/01/28 02:00:34;;;;;;;11.70;9.63;;;;;;;-1.06;100.00;97265.97;5013386;28;20183;-64
2023/01/28 02:05:49;;;;;;;10.30;9.13;;;;;;;-0.98;100.00;97263.50;5007254;28;20241;-64
2023/01/28 02:08:20;;;;;;;11.63;9.83;;;;;;;-1.00;100.00;97267.97;5012902;28;20183;-63
2023/01/28 02:11:07;;;;;;;10.70;9.27;;;;;;;-1.01;100.00;97272.31;5013500;28;20262;-64
2023/01/28 02:13:40;;;;;;;10.23;9.10;;;;;;;-1.02;100.00;97280.16;4995140;28;20214;-63
2023/01/28 02:16:07;;;;;;;11.40;9.63;;;;;;;-0.94;100.00;97270.78;5013381;28;20206;-64
2023/01/28 02:18:33;;;;;;;11.03;9.87;;;;;;;-0.99;100.00;97274.72;5012963;28;20182;-64
2023/01/28 02:21:20;;;;;;;11.60;9.50;;;;;;;-0.96;100.00;97271.88;5013198;28;20178;-63
2023/01/28 02:24:16;;;;;;;10.97;9.03;;;;;;;-0.95;100.00;97273.50;5013446;28;20580;-63
2023/01/28 02:26:55;;;;;;;11.90;8.97;;;;;;;-0.86;100.00;97270.06;4999338;28;20533;-63
2023/01/28 02:29:38;;;;;;;9.60;8.43;;;;;;;-0.96;100.00;97272.69;5012881;28;20205;-63
2023/01/28 02:32:25;;;;;;;10.60;9.40;;;;;;;-0.89;100.00;97275.50;5012857;28;20221;-62
2023/01/28 02:35:02;;;;;;;9.50;8.23;;;;;;;-1.00;100.00;97276.50;4994879;28;20253;-62
2023/01/28 02:37:39;;;;;;;10.00;9.00;;;;;;;-0.76;100.00;97272.59;5012620;28;20670;-62
2023/01/28 02:40:21;;;;;;;9.40;8.37;;;;;;;-0.68;100.00;97273.50;5012400;28;20171;-65
2023/01/28 02:42:47;;;;;;;9.63;8.23;;;;;;;-0.71;100.00;97270.38;5013270;28;20201;-62
2023/01/28 02:47:56;;;;;;;12.37;9.53;;;;;;;-0.80;100.00;97277.22;5013198;28;20183;-63
2023/01/28 02:48:16;;;;;;;11.13;9.97;;;;;;;-0.80;100.00;97273.84;4998194;28;20269;-63
2023/01/28 02:51:21;;;;;;;9.77;8.63;;;;;;;-0.86;100.00;97278.59;5011141;28;20579;-63
2023/01/28 02:53:56;;;;;;;10.80;8.90;;;;;;;-0.83;100.00;97282.63;5012591;28;20293;-63
2023/01/28 02:56:37;;;;;;;9.30;8.37;;;;;;;-0.72;100.00;97274.72;5012211;28;20211;-63
2023/01/28 02:59:29;;;;;;;11.30;9.43;;;;;;;-0.84;100.00;97283.63;5012839;28;20183;-63
2023/01/28 03:02:22;;;;;;;9.90;8.90;;;;;;;-0.80;100.00;97287.50;5012692;28;20190;-63
2023/01/28 03:04:56;;;;;;;12.30;9.80;;;;;;;-0.73;100.00;97286.00;4991125;28;20254;-62
2023/01/28 03:07:24;;;;;;;10.63;9.63;;;;;;;-0.75;100.00;97287.88;5012267;28;20177;-62
2023/01/28 03:09:51;;;;;;;11.13;9.93;;;;;;;-0.75;100.00;97279.34;5012592;28;20199;-64
2023/01/28 03:38:40;;;;;;;10.90;9.77;;;;;;;-0.95;100.00;97281.22;5011902;28;20222;-64
2023/01/28 03:41:07;;;;;;;10.20;9.13;;;;;;;-0.94;100.00;97282.81;4994447;28;20249;-62
2023/01/28 03:43:34;;;;;;;11.57;10.40;;;;;;;-0.99;100.00;97278.13;5011876;28;20599;-62
2023/01/28 03:46:00;;;;;;;12.30;11.00;;;;;;;-1.02;100.00;97280.97;4995955;28;20226;-62
2023/01/28 03:48:27;;;;;;;12.60;11.30;;;;;;;-0.99;100.00;97297.88;5011906;28;20172;-62
2023/01/28 03:50:54;;;;;;;11.17;10.07;;;;;;;-0.96;100.00;97290.72;5011892;28;20722;-62
2023/01/28 03:53:20;;;;;;;14.13;10.77;;;;;;;-0.90;100.00;97297.84;5011907;28;20214;-62
2023/01/28 03:55:48;;;;;;;13.23;11.83;;;;;;;-1.02;100.00;97303.31;5011069;28;20210;-63
2023/01/28 03:58:15;;;;;;;12.47;11.17;;;;;;;-0.98;100.00;97305.47;5011663;28;20202;-63
2023/01/28 04:00:41;;;;;;;16.20;13.20;;;;;;;-1.04;100.00;97300.88;5013281;28;20240;-63
2023/01/28 04:03:14;;;;;;;17.10;12.30;;;;;;;-1.07;100.00;97292.66;5015130;28;20211;-63
2023/01/28 04:05:56;;;;;;;13.97;12.23;;;;;;;-1.06;100.00;97292.47;4980507;28;20607;-62
2023/01/28 04:08:22;;;;;;;16.33;12.70;;;;;;;-1.12;100.00;97285.38;4971560;28;20180;-63
2023/01/28 04:10:48;;;;;;;17.47;13.40;;;;;;;-1.08;100.00;97296.16;4995698;28;20176;-61
2023/01/28 04:13:13;;;;;;;13.43;11.27;;;;;;;-1.12;100.00;97293.06;4995767;28;20207;-62
2023/01/28 04:15:39;;;;;;;14.47;11.67;;;;;;;-0.98;100.00;97294.34;4995672;28;20196;-63
2023/01/28 04:18:04;;;;;;;14.27;11.53;;;;;;;-1.03;100.00;97307.66;4995245;28;20523;-62
2023/01/28 04:20:30;;;;;;;12.53;11.20;;;;;;;-1.00;100.00;97301.41;4994909;28;20493;-63
2023/01/28 04:22:56;;;;;;;12.67;10.90;;;;;;;-1.04;100.00;97303.44;4995277;28;20223;-62
2023/01/28 04:25:21;;;;;;;13.93;11.63;;;;;;;-0.99;100.00;97303.03;4995575;28;20612;-63
2023/01/28 04:27:46;;;;;;;13.93;12.13;;;;;;;-0.87;100.00;97307.03;4995746;28;20184;-63
2023/01/28 04:30:12;;;;;;;16.67;11.77;;;;;;;-0.92;100.00;97309.22;4994288;28;20176;-63
2023/01/28 04:32:37;;;;;;;15.83;12.07;;;;;;;-1.02;100.00;97313.59;4995329;28;20207;-62
2023/01/28 04:35:03;;;;;;;13.70;11.40;;;;;;;-1.01;100.00;97317.81;4995324;28;20256;-63
2023/01/28 04:37:28;;;;;;;13.30;10.80;;;;;;;-0.90;100.00;97322.78;4995446;28;20223;-63
2023/01/28 04:40:21;;;;;;;14.03;11.37;;;;;;;-0.97;100.00;97326.84;4995851;28;20176;-63
2023/01/28 04:42:53;;;;;;;14.93;12.37;;;;;;;-1.05;100.00;97314.69;4992780;28;20176;-61
2023/01/28 04:45:20;;;;;;;15.07;11.83;;;;;;;-1.05;100.00;97324.16;4995224;28;20195;-60
2023/01/28 04:47:45;;;;;;;14.80;12.70;;;;;;;-1.06;100.00;97331.06;4995333;28;20168;-62
2023/01/28 04:50:10;;;;;;;14.80;12.83;;;;;;;-1.00;100.00;97327.94;4993966;28;20188;-62
2023/01/28 04:52:36;;;;;;;15.87;12.73;;;;;;;-1.00;100.00;97335.66;4995069;28;20227;-63
2023/01/28 04:55:02;;;;;;;14.77;12.93;;;;;;;-0.96;100.00;97333.63;4994573;28;20250;-62
2023/01/28 04:57:28;;;;;;;14.57;12.17;;;;;;;-0.94;100.00;97335.09;4994950;28;20279;-64
2023/01/28 04:59:53;;;;;;;15.37;12.47;;;;;;;-0.93;100.00;97341.84;4978045;28;20183;-63
2023/01/28 05:02:19;;;;;;;16.97;12.57;;;;;;;-0.99;100.00;97339.03;4994709;28;20267;-62
2023/01/28 05:04:44;;;;;;;16.00;13.57;;;;;;;-0.95;100.00;97330.09;4999643;28;20227;-63
2023/01/28 05:07:10;;;;;;;17.40;13.40;;;;;;;-0.89;100.00;97335.47;5014406;28;20598;-65
2023/01/28 05:09:36;;;;;;;15.37;13.20;;;;;;;-0.89;100.00;97334.66;5013813;28;20258;-63
2023/01/28 05:12:02;;;;;;;18.40;14.90;;;;;;;-0.97;100.00;97340.53;5014026;28;20171;-63
2023/01/28 05:14:27;;;;;;;15.57;12.90;;;;;;;-0.91;100.00;97336.59;5014266;28;20226;-62
2023/01/28 05:16:52;;;;;;;17.67;15.63;;;;;;;-1.00;100.00;97338.22;5014319;28;20545;-62
2023/01/28 05:19:18;;;;;;;17.33;13.87;;;;;;;-0.94;100.00;97342.00;5014067;28;20250;-63
2023/01/28 05:21:43;;;;;;;18.40;14.20;;;;;;;-0.91;100.00;97350.25;5014061;28;20226;-62
2023/01/28 05:24:09;;;;;;;18.07;14.13;;;;;;;-1.03;100.00;97350.56;5014002;28;20209;-62
2023/01/28 05:26:36;;;;;;;18.50;13.80;;;;;;;-1.05;100.00;97335.25;5013613;28;20186;-63
2023/01/28 05:29:02;;;;;;;20.27;13.87;;;;;;;-0.97;100.00;97332.81;5013812;28;20706;-63
2023/01/28 05:31:27;;;;;;;18.33;15.07;;;;;;;-0.87;100.00;97330.19;5013964;28;20183;-63
2023/01/28 05:33:53;;;;;;;19.90;15.40;;;;;;;-0.95;100.00;97330.09;5013640;28;20221;-64
2023/01/28 05:36:18;;;;;;;18.37;13.80;;;;;;;-0.93;100.00;97331.56;5013515;28;20198;-64
2023/01/28 05:38:44;;;;;;;19.20;13.63;;;;;;;-0.99;100.00;97326.16;5014112;28;20183;-64
2023/01/28 05:41:09;;;;;;;19.27;14.47;;;;;;;-1.01;100.00;97334.06;4995876;28;20183;-58
2023/01/28 05:43:35;;;;;;;19.83;14.03;;;;;;;-1.04;100.00;97341.22;5013465;28;20211;-61
2023/01/28 05:46:00;;;;;;;19.07;14.10;;;;;;;-0.96;100.00;97336.19;5013966;28;20185;-62
2023/01/28 05:48:26;;;;;;;15.93;13.37;;;;;;;-1.09;100.00;97345.97;5013215;28;20211;-63
2023/01/28 05:50:51;;;;;;;17.47;13.83;;;;;;;-1.05;100.00;97347.31;5013513;28;20175;-62
2023/01/28 05:53:17;;;;;;;19.37;15.03;;;;;;;-1.03;100.00;97342.84;5013235;28;20699;-63
2023/01/28 05:55:42;;;;;;;18.03;14.30;;;;;;;-0.94;100.00;97342.00;5013332;28;20257;-63
2023/01/28 05:58:13;;;;;;;18.47;14.80;;;;;;;-1.05;100.00;97340.41;4995819;28;20219;-63
2023/01/28 06:00:38;;;;;;;18.17;14.50;;;;;;;-1.05;100.00;97348.13;5013404;28;20191;-63
2023/01/28 06:03:04;;;;;;;20.93;15.07;;;;;;;-0.94;100.00;97347.13;5013181;28;20270;-63
2023/01/28 06:05:29;;;;;;;17.80;14.50;;;;;;;-0.93;100.00;97352.16;5011441;28;20305;-63
2023/01/28 06:07:54;;;;;;;18.03;13.93;;;;;;;-0.91;100.00;97347.69;5013233;28;20176;-63
2023/01/28 06:10:20;;;;;;;17.20;14.20;;;;;;;-0.97;100.00;97368.00;5014310;28;20179;-63
2023/01/28 06:12:46;;;;;;;18.83;13.43;;;;;;;-0.94;100.00;97360.81;5013739;28;20175;-63
2023/01/28 06:15:11;;;;;;;17.33;14.73;;;;;;;-0.99;100.00;97360.44;5013382;28;20746;-63
2023/01/28 06:17:37;;;;;;;18.03;14.63;;;;;;;-1.02;100.00;97368.44;5013575;28;20175;-63
2023/01/28 06:20:03;;;;;;;20.33;14.67;;;;;;;-1.05;100.00;97370.47;5013104;28;20270;-64
2023/01/28 06:22:28;;;;;;;20.70;16.43;;;;;;;-1.01;100.00;97375.22;5013397;28;20172;-62
2023/01/28 06:24:54;;;;;;;19.83;15.77;;;;;;;-1.00;100.00;97373.41;5012988;28;20245;-64
2023/01/28 06:27:19;;;;;;;19.97;16.03;;;;;;;-1.03;100.00;97391.72;5013439;28;20183;-64
2023/01/28 06:29:45;;;;;;;19.57;16.17;;;;;;;-1.05;100.00;97386.69;5013339;28;20214;-63
2023/01/28 06:32:10;;;;;;;19.20;16.37;;;;;;;-0.98;100.00;97387.78;5013491;28;20577;-64
2023/01/28 06:34:36;;;;;;;23.33;16.07;;;;;;;-0.98;100.00;97392.91;5013468;28;20211;-64
2023/01/28 06:37:03;;;;;;;19.87;16.93;;;;;;;-1.08;100.00;97399.84;5012683;28;20532;-63
2023/01/28 06:39:31;;;;;;;21.03;16.17;;;;;;;-1.01;100.00;97400.94;5013313;28;20258;-64
2023/01/28 06:41:57;;;;;;;19.23;15.10;;;;;;;-1.07;100.00;97406.63;5012303;28;20253;-64
2023/01/28 06:44:22;;;;;;;21.23;15.87;;;;;;;-0.98;100.00;97399.81;5012630;28;20253;-65
2023/01/28 06:46:48;;;;;;;22.20;16.83;;;;;;;-0.88;100.00;97405.75;5012535;28;20278;-62
2023/01/28 06:49:14;;;;;;;20.80;16.00;;;;;;;-0.94;100.00;97403.72;5011686;28;20715;-62
2023/01/28 06:51:39;;;;;;;20.73;16.67;;;;;;;-1.00;100.00;97410.25;5012618;28;20183;-63
2023/01/28 06:54:05;;;;;;;19.43;15.63;;;;;;;-0.91;100.00;97418.91;5012787;28;20713;-63
2023/01/28 06:56:30;;;;;;;19.30;15.23;;;;;;;-0.91;100.00;97416.34;5012423;28;20215;-64
2023/01/28 06:58:56;;;;;;;22.90;15.60;;;;;;;-0.90;100.00;97416.19;5012393;28;20640;-64
2023/01/28 07:01:21;;;;;;;20.13;16.60;;;;;;;-0.95;100.00;97415.78;5012538;28;20225;-62
2023/01/28 07:06:12;;;;;;;21.92;15.80;;;;;;;-0.92;100.00;97418.09;5009256;28;20629;-64
2023/01/28 07:08:38;;;;;;;21.53;16.80;;;;;;;-0.90;100.00;97417.97;5010797;28;20191;-64
2023/01/28 07:11:04;;;;;;;22.87;15.80;;;;;;;-0.77;100.00;97425.34;5010343;28;20163;-64
2023/01/28 07:13:30;;;;;;;22.17;16.63;;;;;;;-0.75;100.00;97419.13;5011666;28;20621;-61
2023/01/28 07:16:03;;;;;;;20.37;16.00;;;;;;;-0.85;100.00;97424.31;5011439;28;20282;-63
2023/01/28 07:18:29;;;;;;;21.33;15.33;;;;;;;-0.79;100.00;97420.38;5011461;28;20179;-61
2023/01/28 07:20:55;;;;;;;19.93;15.90;;;;;;;-0.85;100.00;97424.31;5011681;28;20521;-68
2023/01/28 07:23:20;;;;;;;20.53;16.40;;;;;;;-0.69;100.00;97431.44;4994564;28;20196;-66
2023/01/28 07:25:46;;;;;;;21.87;16.27;;;;;;;-0.66;100.00;97433.72;5012234;28;20206;-61
2023/01/28 07:28:11;;;;;;;22.20;16.63;;;;;;;-0.71;100.00;97435.09;5011817;28;20175;-63
2023/01/28 07:30:37;;;;;;;22.23;15.93;;;;;;;-0.66;100.00;97435.47;5010693;28;20659;-63
2023/01/28 07:33:02;;;;;;;21.80;16.97;;;;;;;-0.65;100.00;97434.53;5011259;28;20710;-62
2023/01/28 07:35:30;;;;;;;20.77;15.90;;;;;;;-0.69;100.00;97435.78;5012678;28;20231;-62
2023/01/28 07:38:01;;;;;;;21.20;17.10;;;;;;;-0.68;100.00;97445.13;5015112;28;20263;-62
2023/01/28 07:40:27;;;;;;;20.83;17.50;;;;;;;-0.59;100.00;97445.09;4997301;28;20199;-63
2023/01/28 07:42:54;;;;;;;20.80;15.33;;;;;;;-0.70;100.00;97437.53;5014750;28;20585;-65
2023/01/28 07:45:19;;;;;;;17.90;14.80;;;;;;;-0.71;100.00;97441.06;5015084;28;20875;-62
2023/01/28 07:47:56;;;;;;;22.20;16.00;;;;;;;-0.58;100.00;97444.13;5014297;28;20176;-62
2023/01/28 07:50:21;;;;;;;21.27;15.50;;;;;;;-0.53;100.00;97443.72;4999548;28;20270;-61
2023/01/28 07:52:47;;;;;;;22.00;15.57;;;;;;;-0.58;100.00;97448.47;5015083;28;20258;-61
2023/01/28 07:55:15;;;;;;;21.90;16.47;;;;;;;-0.42;100.00;97446.91;5014303;28;20293;-64
2023/01/28 07:58:09;;;;;;;20.87;16.47;;;;;;;-0.37;100.00;97448.25;5014728;28;20211;-62
2023/01/28 08:00:37;;;;;;;18.50;15.20;;;;;;;-0.40;100.00;97456.28;5011721;28;20195;-66
2023/01/28 08:03:07;;;;;;;20.43;16.00;;;;;;;-0.36;100.00;97452.44;5014692;28;20278;-62
2023/01/28 08:05:47;;;;;;;20.40;14.37;;;;;;;-0.51;100.00;97463.22;4976425;28;1087097;-62
2023/01/28 08:08:13;;;;;;;20.47;15.63;;;;;;;-0.43;100.00;97465.88;5014783;28;20182;-62
2023/01/28 08:10:39;;;;;;;20.00;14.73;;;;;;;-0.46;100.00;97462.78;5015243;28;20171;-61
2023/01/28 08:13:05;;;;;;;19.03;15.90;;;;;;;-0.58;100.00;97464.72;5014993;28;20628;-62
2023/01/28 08:15:31;;;;;;;19.77;15.57;;;;;;;-0.52;100.00;97465.94;5015772;28;20199;-63
2023/01/28 08:17:57;;;;;;;18.30;14.73;;;;;;;-0.64;100.00;97467.03;5015631;28;20510;-64
2023/01/28 08:20:24;;;;;;;19.80;15.17;;;;;;;-0.51;100.00;97465.78;5017198;28;20667;-66
2023/01/28 08:22:50;;;;;;;17.87;14.63;;;;;;;-0.35;100.00;97466.94;5014605;28;20257;-64
2023/01/28 08:25:15;;;;;;;19.50;15.50;;;;;;;-0.27;100.00;97469.63;5015517;28;20267;-65
2023/01/28 08:27:41;;;;;;;18.03;15.17;;;;;;;-0.23;100.00;97464.06;4997627;28;20265;-64
2023/01/28 08:30:08;;;;;;;18.77;15.47;;;;;;;-0.25;100.00;97475.44;5015214;28;20262;-64
2023/01/28 08:32:34;;;;;;;19.67;15.33;;;;;;;-0.24;100.00;97470.16;5015204;28;20175;-65
2023/01/28 08:35:00;;;;;;;18.40;14.83;;;;;;;-0.29;100.00;97468.97;4996857;28;20203;-65
2023/01/28 08:37:25;;;;;;;19.23;15.17;;;;;;;-0.24;100.00;97465.00;5015254;28;20176;-67
2023/01/28 08:39:51;;;;;;;20.20;15.30;;;;;;;-0.08;100.00;97469.53;5015739;28;20175;-66
2023/01/28 08:42:16;;;;;;;20.00;15.27;;;;;;;-0.06;100.00;97472.78;5015013;28;20175;-65
2023/01/28 08:44:42;;;;;;;19.10;14.60;;;;;;;0.05;100.00;97474.38;5014118;28;20206;-66
2023/01/28 08:47:07;;;;;;;23.30;14.60;;;;;;;0.14;100.00;97479.47;5013479;28;20187;-66
2023/01/28 08:49:33;;;;;;;19.10;14.93;;;;;;;0.15;100.00;97475.94;5014596;28;20284;-65
2023/01/28 08:51:58;;;;;;;20.33;14.73;;;;;;;0.02;100.00;97474.63;5014574;28;20249;-65
2023/01/28 08:54:24;;;;;;;16.67;13.83;;;;;;;0.10;100.00;97469.59;5006542;28;20203;-66
2023/01/28 08:56:50;;;;;;;16.70;13.83;;;;;;;0.07;100.00;97483.56;5014384;28;20658;-65
2023/01/28 08:59:16;;;;;;;16.17;13.33;;;;;;;0.15;100.00;97475.13;5014540;28;20644;-65
2023/01/28 09:01:41;;;;;;;18.20;14.50;;;;;;;0.03;100.00;97481.41;5014368;28;20211;-63
2023/01/28 09:04:07;;;;;;;17.07;14.30;;;;;;;0.06;100.00;97483.72;5011737;28;20251;-63
2023/01/28 09:06:32;;;;;;;20.03;15.30;;;;;;;0.18;100.00;97488.50;5014846;28;20183;-64
2023/01/28 09:08:59;;;;;;;15.90;13.83;;;;;;;0.23;100.00;97488.88;5013990;28;20186;-64
2023/01/28 09:11:26;;;;;;;20.87;15.10;;;;;;;0.20;100.00;97489.19;5014663;28;20660;-70
2023/01/28 09:13:51;;;;;;;17.90;15.07;;;;;;;0.19;100.00;97484.16;5014453;28;20229;-65
2023/01/28 09:16:17;;;;;;;18.53;14.47;;;;;;;0.25;100.00;97481.84;5014250;28;20211;-66
2023/01/28 09:18:43;;;;;;;16.80;14.27;;;;;;;0.28;100.00;97483.31;5014444;28;20182;-66
2023/01/28 09:21:09;;;;;;;18.90;14.63;;;;;;;0.32;100.00;97492.38;5014304;28;20680;-66
2023/01/28 09:23:35;;;;;;;18.30;14.20;;;;;;;0.36;100.00;97493.72;5014275;28;20199;-66
2023/01/28 09:26:03;;;;;;;18.17;13.77;;;;;;;0.41;100.00;97500.06;5014594;28;20175;-68
2023/01/28 09:28:31;;;;;;;18.83;14.40;;;;;;;0.43;100.00;97496.53;5013911;28;20285;-66
2023/01/28 09:31:03;;;;;;;17.70;14.33;;;;;;;0.45;100.00;97503.13;5014457;28;20254;-66
2023/01/28 09:33:29;;;;;;;18.80;15.17;;;;;;;0.38;100.00;97508.09;5015471;28;20290;-66
2023/01/28 09:35:55;;;;;;;19.60;14.40;;;;;;;0.65;100.00;97509.81;4998483;28;20209;-66
2023/01/28 09:38:20;;;;;;;18.10;14.13;;;;;;;0.70;100.00;97504.19;5014984;28;20183;-66
2023/01/28 09:40:46;;;;;;;16.67;13.90;;;;;;;0.51;100.00;97514.63;5015344;28;20203;-67
2023/01/28 09:43:47;;;;;;;18.03;14.37;;;;;;;0.48;100.00;97510.59;5014124;28;20221;-68
2023/01/28 09:46:15;;;;;;;14.03;12.43;;;;;;;0.52;100.00;97518.84;4968069;28;20210;-65
2023/01/28 09:48:51;;;;;;;20.03;14.03;;;;;;;0.59;100.00;97520.69;5013274;28;20187;-66
2023/01/28 09:51:26;;;;;;;17.17;13.53;;;;;;;0.73;100.00;97527.91;5013636;28;20640;-66
2023/01/28 09:53:56;;;;;;;17.63;13.57;;;;;;;0.72;100.00;97522.94;4996441;28;20660;-66
2023/01/28 09:56:38;;;;;;;17.23;13.93;;;;;;;0.66;100.00;97526.91;5013637;28;20215;-66
2023/01/28 09:59:18;;;;;;;16.70;12.77;;;;;;;0.75;100.00;97532.94;4995495;28;20286;-66
2023/01/28 10:01:58;;;;;;;17.77;14.13;;;;;;;0.79;100.00;97526.53;5012989;28;20644;-66
2023/01/28 10:04:53;;;;;;;16.50;14.00;;;;;;;0.76;100.00;97524.25;5011339;28;20314;-66
2023/01/28 10:07:36;;;;;;;18.13;13.10;;;;;;;0.68;100.00;97531.91;5012856;28;20197;-66
2023/01/28 10:10:14;;;;;;;16.23;12.87;;;;;;;0.56;100.00;97528.72;4995130;28;20194;-66
2023/01/28 10:12:56;;;;;;;18.10;13.97;;;;;;;0.41;100.00;97531.00;4976546;28;20172;-66
2023/01/28 10:16:19;;;;;;;18.47;14.23;;;;;;;0.56;100.00;97528.72;5004947;28;20199;-65
2023/01/28 10:18:54;;;;;;;19.13;14.27;;;;;;;0.66;100.00;97519.16;4914827;29;20277;-66
2023/01/28 10:21:26;;;;;;;19.63;15.53;;;;;;;0.62;100.00;97520.41;4914489;29;20249;-66
2023/01/28 10:24:00;;;;;;;19.53;14.90;;;;;;;0.54;100.00;97519.53;4970049;28;20566;-66
2023/01/28 10:26:34;;;;;;;18.43;14.60;;;;;;;0.54;100.00;97520.34;5013467;28;20183;-67
2023/01/28 10:29:04;;;;;;;21.40;14.20;;;;;;;0.55;100.00;97506.50;4985828;28;20234;-66
2023/01/28 10:31:34;;;;;;;17.60;13.03;;;;;;;0.59;100.00;97512.97;5013265;28;20164;-66
2023/01/28 10:34:00;;;;;;;17.20;13.70;;;;;;;0.45;100.00;97512.66;5012832;28;20633;-65
2023/01/28 10:36:26;;;;;;;18.57;15.13;;;;;;;0.43;100.00;97510.22;5012862;28;20285;-66
2023/01/28 10:38:51;;;;;;;18.80;13.97;;;;;;;0.46;100.00;97509.91;5012652;28;20640;-65
2023/01/28 10:41:20;;;;;;;18.70;15.13;;;;;;;0.45;100.00;97507.50;4995014;28;20191;-65
2023/01/28 10:43:48;;;;;;;19.13;16.10;;;;;;;0.39;100.00;97507.09;5012700;28;20609;-66
2023/01/28 10:46:29;;;;;;;19.53;15.33;;;;;;;0.44;100.00;97501.53;5004820;28;20179;-65
2023/01/28 10:49:09;;;;;;;21.20;14.33;;;;;;;0.37;100.00;97500.50;5012090;28;20589;-65
2023/01/28 10:51:38;;;;;;;19.13;14.17;;;;;;;0.35;100.00;97495.47;4986994;28;20671;-65
2023/01/28 10:54:24;;;;;;;20.83;14.83;;;;;;;0.43;100.00;97499.09;5010541;28;20218;-65
2023/01/28 10:56:53;;;;;;;20.57;15.40;;;;;;;0.51;100.00;97506.91;5011641;28;20245;-65
2023/01/28 10:59:25;;;;;;;21.60;14.93;;;;;;;0.32;100.00;97506.09;5012992;28;20266;-67
2023/01/28 11:01:56;;;;;;;20.63;15.47;;;;;;;0.29;100.00;97498.63;5013156;28;20187;-66
2023/01/28 11:04:31;;;;;;;20.60;15.87;;;;;;;0.24;100.00;97503.41;5009312;28;20242;-68
2023/01/28 11:07:06;;;;;;;19.57;15.13;;;;;;;0.33;100.00;97505.13;5011116;28;20640;-66
2023/01/28 11:09:36;;;;;;;21.53;15.53;;;;;;;0.30;100.00;97505.41;5012835;28;20782;-66
2023/01/28 11:12:25;;;;;;;20.17;15.57;;;;;;;0.38;100.00;97512.44;5017309;28;20203;-65
2023/01/28 11:14:54;;;;;;;20.40;14.67;;;;;;;0.41;100.00;97507.78;5016856;28;20520;-64
2023/01/28 11:17:24;;;;;;;22.57;16.07;;;;;;;0.55;100.00;97503.91;5017772;28;20187;-66
2023/01/28 11:19:52;;;;;;;18.43;14.30;;;;;;;0.48;100.00;97508.03;5017073;28;20178;-66
2023/01/28 11:22:34;;;;;;;22.40;15.90;;;;;;;0.51;100.00;97507.72;5017047;28;20650;-69
2023/01/28 11:25:12;;;;;;;21.23;15.23;;;;;;;0.42;100.00;97508.59;5016269;28;20199;-66
2023/01/28 11:27:38;;;;;;;24.47;14.90;;;;;;;0.45;100.00;97517.81;4998466;28;20628;-65
2023/01/28 11:30:06;;;;;;;22.03;14.53;;;;;;;0.44;100.00;97518.78;5016874;28;20183;-65
2023/01/28 11:32:32;;;;;;;20.37;15.03;;;;;;;0.40;100.00;97518.22;5016471;28;20184;-65
2023/01/28 11:34:59;;;;;;;21.03;16.00;;;;;;;0.29;100.00;97524.41;5016536;28;20695;-65
2023/01/28 11:37:26;;;;;;;20.27;15.27;;;;;;;0.46;100.00;97511.69;5015691;28;20225;-66
2023/01/28 11:40:15;;;;;;;20.63;15.80;;;;;;;0.64;100.00;97513.34;5016015;28;20183;-66
2023/01/28 11:42:41;;;;;;;21.20;15.40;;;;;;;0.60;100.00;97512.00;5016685;28;20672;-66
2023/01/28 11:45:15;;;;;;;23.97;16.33;;;;;;;0.58;100.00;97516.50;4998198;28;20208;-66
2023/01/28 11:47:58;;;;;;;20.93;16.50;;;;;;;0.59;100.00;97512.16;5015124;28;20696;-66
2023/01/28 11:50:47;;;;;;;19.30;14.77;;;;;;;0.64;100.00;97510.75;4991753;28;20183;-65
2023/01/28 11:53:41;;;;;;;21.13;14.47;;;;;;;0.74;100.00;97518.41;5015190;28;20299;-65
2023/01/28 11:56:26;;;;;;;19.03;14.70;;;;;;;0.68;100.00;97519.00;5015711;28;20579;-68
2023/01/28 11:59:22;;;;;;;21.23;14.73;;;;;;;0.56;100.00;97509.88;5014995;28;20187;-66